sensor_id;sensor_type;location;lat;lon;timestamp;P1;durP1;ratioP1;P2;durP2;ratioP2
55465;SDS011;41329;41.594;23.810;2023-01-25T00:02:00;16.90;;;15.50;;
55465;SDS011;41329;41.594;23.810;2023-01-25T00:04:27;17.33;;;15.97;;
55465;SDS011;41329;41.594;23.810;2023-01-25T00:06:52;17.53;;;15.97;;
55465;SDS011;41329;41.594;23.810;2023-01-25T00:09:18;15.77;;;14.63;;
55465;SDS011;41329;41.594;23.810;2023-01-25T00:11:45;20.43;;;18.43;;
55465;SDS011;41329;41.594;23.810;2023-01-25T00:14:11;20.87;;;18.87;;
55465;SDS011;41329;41.594;23.810;2023-01-25T00:16:37;16.23;;;14.90;;
55465;SDS011;41329;41.594;23.810;2023-01-25T00:19:05;17.87;;;16.27;;
55465;SDS011;41329;41.594;23.810;2023-01-25T00:21:32;14.83;;;13.83;;
55465;SDS011;41329;41.594;23.810;2023-01-25T00:23:58;13.40;;;12.50;;
55465;SDS011;41329;41.594;23.810;2023-01-25T00:26:24;14.53;;;13.13;;
55465;SDS011;41329;41.594;23.810;2023-01-25T00:28:50;14.00;;;12.80;;
55465;SDS011;41329;41.594;23.810;2023-01-25T00:31:21;14.35;;;13.35;;
55465;SDS011;41329;41.594;23.810;2023-01-25T00:34:09;13.97;;;12.93;;
55465;SDS011;41329;41.594;23.810;2023-01-25T00:36:48;13.40;;;12.60;;
55465;SDS011;41329;41.594;23.810;2023-01-25T00:39:16;13.57;;;12.57;;
55465;SDS011;41329;41.594;23.810;2023-01-25T00:41:42;13.73;;;12.73;;
55465;SDS011;41329;41.594;23.810;2023-01-25T00:44:08;14.30;;;13.40;;
55465;SDS011;41329;41.594;23.810;2023-01-25T00:46:34;14.23;;;13.13;;
55465;SDS011;41329;41.594;23.810;2023-01-25T00:49:00;13.73;;;12.73;;
55465;SDS011;41329;41.594;23.810;2023-01-25T00:51:25;13.43;;;12.53;;
55465;SDS011;41329;41.594;23.810;2023-01-25T00:53:51;12.43;;;11.63;;
55465;SDS011;41329;41.594;23.810;2023-01-25T00:56:17;12.93;;;12.03;;
55465;SDS011;41329;41.594;23.810;2023-01-25T00:58:42;12.20;;;11.13;;
55465;SDS011;41329;41.594;23.810;2023-01-25T01:01:08;12.87;;;12.07;;
55465;SDS011;41329;41.594;23.810;2023-01-25T01:03:34;12.53;;;11.63;;
55465;SDS011;41329;41.594;23.810;2023-01-25T01:06:07;13.30;;;12.23;;
55465;SDS011;41329;41.594;23.810;2023-01-25T01:08:35;14.40;;;13.30;;
55465;SDS011;41329;41.594;23.810;2023-01-25T01:11:04;13.33;;;12.33;;
55465;SDS011;41329;41.594;23.810;2023-01-25T01:13:31;13.70;;;12.70;;
55465;SDS011;41329;41.594;23.810;2023-01-25T01:15:59;14.37;;;13.47;;
55465;SDS011;41329;41.594;23.810;2023-01-25T01:18:32;16.90;;;15.40;;
55465;SDS011;41329;41.594;23.810;2023-01-25T01:20:59;14.60;;;13.40;;
55465;SDS011;41329;41.594;23.810;2023-01-25T01:23:25;12.63;;;11.73;;
55465;SDS011;41329;41.594;23.810;2023-01-25T01:25:52;12.83;;;12.03;;
55465;SDS011;41329;41.594;23.810;2023-01-25T01:28:18;12.30;;;11.50;;
55465;SDS011;41329;41.594;23.810;2023-01-25T01:30:43;11.77;;;10.77;;
55465;SDS011;41329;41.594;23.810;2023-01-25T01:33:08;11.40;;;10.70;;
55465;SDS011;41329;41.594;23.810;2023-01-25T01:35:34;12.60;;;11.80;;
55465;SDS011;41329;41.594;23.810;2023-01-25T01:37:59;11.53;;;10.80;;
55465;SDS011;41329;41.594;23.810;2023-01-25T01:40:25;10.63;;;9.93;;
55465;SDS011;41329;41.594;23.810;2023-01-25T01:43:04;11.50;;;10.40;;
55465;SDS011;41329;41.594;23.810;2023-01-25T01:50:47;12.20;;;11.40;;
55465;SDS011;41329;41.594;23.810;2023-01-25T01:53:19;12.33;;;11.23;;
55465;SDS011;41329;41.594;23.810;2023-01-25T01:55:48;12.73;;;11.77;;
55465;SDS011;41329;41.594;23.810;2023-01-25T01:58:14;11.03;;;10.20;;
55465;SDS011;41329;41.594;23.810;2023-01-25T02:00:40;10.63;;;9.93;;
55465;SDS011;41329;41.594;23.810;2023-01-25T02:03:06;11.67;;;10.83;;
55465;SDS011;41329;41.594;23.810;2023-01-25T02:05:39;10.80;;;9.77;;
55465;SDS011;41329;41.594;23.810;2023-01-25T02:08:12;11.80;;;9.77;;
55465;SDS011;41329;41.594;23.810;2023-01-25T02:10:40;9.60;;;9.00;;
55465;SDS011;41329;41.594;23.810;2023-01-25T02:13:08;9.80;;;9.07;;
55465;SDS011;41329;41.594;23.810;2023-01-25T02:15:37;10.87;;;10.07;;
55465;SDS011;41329;41.594;23.810;2023-01-25T02:18:07;10.80;;;10.10;;
55465;SDS011;41329;41.594;23.810;2023-01-25T02:30:51;9.70;;;8.90;;
55465;SDS011;41329;41.594;23.810;2023-01-25T02:33:17;10.47;;;9.73;;
55465;SDS011;41329;41.594;23.810;2023-01-25T02:38:15;10.43;;;9.63;;
55465;SDS011;41329;41.594;23.810;2023-01-25T02:40:48;10.50;;;9.50;;
55465;SDS011;41329;41.594;23.810;2023-01-25T02:43:18;9.80;;;7.97;;
55465;SDS011;41329;41.594;23.810;2023-01-25T02:45:45;10.13;;;9.27;;
55465;SDS011;41329;41.594;23.810;2023-01-25T02:48:13;10.20;;;9.25;;
55465;SDS011;41329;41.594;23.810;2023-01-25T02:50:38;9.33;;;8.63;;
55465;SDS011;41329;41.594;23.810;2023-01-25T02:53:04;10.57;;;9.57;;
55465;SDS011;41329;41.594;23.810;2023-01-25T02:55:29;9.77;;;9.07;;
55465;SDS011;41329;41.594;23.810;2023-01-25T02:57:55;11.63;;;9.40;;
55465;SDS011;41329;41.594;23.810;2023-01-25T03:00:20;10.53;;;9.70;;
55465;SDS011;41329;41.594;23.810;2023-01-25T03:02:46;10.77;;;9.97;;
55465;SDS011;41329;41.594;23.810;2023-01-25T03:05:11;10.93;;;10.03;;
55465;SDS011;41329;41.594;23.810;2023-01-25T03:07:37;9.43;;;8.63;;
55465;SDS011;41329;41.594;23.810;2023-01-25T03:10:02;11.53;;;10.40;;
55465;SDS011;41329;41.594;23.810;2023-01-25T03:12:28;11.67;;;9.57;;
55465;SDS011;41329;41.594;23.810;2023-01-25T03:14:53;10.53;;;9.67;;
55465;SDS011;41329;41.594;23.810;2023-01-25T03:17:19;10.50;;;9.63;;
55465;SDS011;41329;41.594;23.810;2023-01-25T03:19:44;11.47;;;10.50;;
55465;SDS011;41329;41.594;23.810;2023-01-25T03:22:10;16.33;;;10.00;;
55465;SDS011;41329;41.594;23.810;2023-01-25T03:24:35;10.63;;;9.73;;
55465;SDS011;41329;41.594;23.810;2023-01-25T03:27:01;10.00;;;9.10;;
55465;SDS011;41329;41.594;23.810;2023-01-25T03:29:36;10.27;;;9.53;;
55465;SDS011;41329;41.594;23.810;2023-01-25T03:32:02;11.40;;;10.40;;
55465;SDS011;41329;41.594;23.810;2023-01-25T03:34:28;10.70;;;9.73;;
55465;SDS011;41329;41.594;23.810;2023-01-25T03:36:53;10.60;;;9.70;;
55465;SDS011;41329;41.594;23.810;2023-01-25T03:39:19;11.00;;;10.13;;
55465;SDS011;41329;41.594;23.810;2023-01-25T03:41:44;12.40;;;10.93;;
55465;SDS011;41329;41.594;23.810;2023-01-25T03:44:10;10.93;;;10.10;;
55465;SDS011;41329;41.594;23.810;2023-01-25T03:46:36;11.70;;;10.60;;
55465;SDS011;41329;41.594;23.810;2023-01-25T03:49:02;10.97;;;10.03;;
55465;SDS011;41329;41.594;23.810;2023-01-25T03:51:27;21.80;;;18.27;;
55465;SDS011;41329;41.594;23.810;2023-01-25T03:53:53;11.97;;;10.93;;
55465;SDS011;41329;41.594;23.810;2023-01-25T03:56:18;10.33;;;9.53;;
55465;SDS011;41329;41.594;23.810;2023-01-25T03:58:44;9.83;;;9.03;;
55465;SDS011;41329;41.594;23.810;2023-01-25T04:01:10;10.37;;;9.67;;
55465;SDS011;41329;41.594;23.810;2023-01-25T04:03:36;10.07;;;9.27;;
55465;SDS011;41329;41.594;23.810;2023-01-25T04:06:02;10.43;;;9.63;;
55465;SDS011;41329;41.594;23.810;2023-01-25T04:08:29;11.40;;;10.50;;
55465;SDS011;41329;41.594;23.810;2023-01-25T04:10:56;11.20;;;10.40;;
55465;SDS011;41329;41.594;23.810;2023-01-25T04:15:50;11.30;;;10.37;;
55465;SDS011;41329;41.594;23.810;2023-01-25T04:18:16;11.07;;;10.17;;
55465;SDS011;41329;41.594;23.810;2023-01-25T04:20:42;10.50;;;9.50;;
55465;SDS011;41329;41.594;23.810;2023-01-25T04:23:08;13.30;;;11.97;;
55465;SDS011;41329;41.594;23.810;2023-01-25T04:25:34;11.43;;;10.37;;
55465;SDS011;41329;41.594;23.810;2023-01-25T04:28:00;12.13;;;11.23;;
55465;SDS011;41329;41.594;23.810;2023-01-25T04:30:26;13.07;;;11.83;;
55465;SDS011;41329;41.594;23.810;2023-01-25T04:32:52;12.00;;;11.07;;
55465;SDS011;41329;41.594;23.810;2023-01-25T04:35:17;10.63;;;9.83;;
55465;SDS011;41329;41.594;23.810;2023-01-25T04:37:51;12.23;;;11.03;;
55465;SDS011;41329;41.594;23.810;2023-01-25T04:40:20;10.00;;;9.13;;
55465;SDS011;41329;41.594;23.810;2023-01-25T04:42:45;9.97;;;9.20;;
55465;SDS011;41329;41.594;23.810;2023-01-25T04:45:11;10.73;;;9.33;;
55465;SDS011;41329;41.594;23.810;2023-01-25T04:47:37;12.77;;;11.33;;
55465;SDS011;41329;41.594;23.810;2023-01-25T04:50:02;10.20;;;9.40;;
55465;SDS011;41329;41.594;23.810;2023-01-25T04:52:28;10.90;;;9.80;;
55465;SDS011;41329;41.594;23.810;2023-01-25T04:54:53;13.37;;;11.93;;
55465;SDS011;41329;41.594;23.810;2023-01-25T04:57:19;15.33;;;13.80;;
55465;SDS011;41329;41.594;23.810;2023-01-25T04:59:44;21.43;;;18.67;;
55465;SDS011;41329;41.594;23.810;2023-01-25T05:02:10;18.17;;;16.57;;
55465;SDS011;41329;41.594;23.810;2023-01-25T05:04:35;13.13;;;12.13;;
55465;SDS011;41329;41.594;23.810;2023-01-25T05:07:01;10.77;;;9.77;;
55465;SDS011;41329;41.594;23.810;2023-01-25T05:09:26;14.23;;;13.03;;
55465;SDS011;41329;41.594;23.810;2023-01-25T05:11:52;13.57;;;12.40;;
55465;SDS011;41329;41.594;23.810;2023-01-25T05:14:17;12.23;;;10.77;;
55465;SDS011;41329;41.594;23.810;2023-01-25T05:16:42;11.10;;;10.10;;
55465;SDS011;41329;41.594;23.810;2023-01-25T05:19:08;10.40;;;9.60;;
55465;SDS011;41329;41.594;23.810;2023-01-25T05:21:34;10.53;;;9.77;;
55465;SDS011;41329;41.594;23.810;2023-01-25T05:24:18;10.50;;;9.70;;
55465;SDS011;41329;41.594;23.810;2023-01-25T05:26:43;11.60;;;10.13;;
55465;SDS011;41329;41.594;23.810;2023-01-25T05:29:28;11.23;;;10.17;;
55465;SDS011;41329;41.594;23.810;2023-01-25T05:31:55;11.77;;;10.77;;
55465;SDS011;41329;41.594;23.810;2023-01-25T05:34:21;11.07;;;10.27;;
55465;SDS011;41329;41.594;23.810;2023-01-25T05:36:47;10.07;;;9.17;;
55465;SDS011;41329;41.594;23.810;2023-01-25T05:39:12;12.07;;;11.00;;
55465;SDS011;41329;41.594;23.810;2023-01-25T05:41:38;11.07;;;10.07;;
55465;SDS011;41329;41.594;23.810;2023-01-25T05:44:03;11.63;;;10.80;;
55465;SDS011;41329;41.594;23.810;2023-01-25T05:46:29;12.33;;;11.40;;
55465;SDS011;41329;41.594;23.810;2023-01-25T05:48:54;12.83;;;11.63;;
55465;SDS011;41329;41.594;23.810;2023-01-25T05:51:20;12.33;;;11.03;;
55465;SDS011;41329;41.594;23.810;2023-01-25T05:53:45;13.97;;;12.83;;
55465;SDS011;41329;41.594;23.810;2023-01-25T05:56:11;14.27;;;13.13;;
55465;SDS011;41329;41.594;23.810;2023-01-25T05:58:36;12.80;;;11.60;;
55465;SDS011;41329;41.594;23.810;2023-01-25T06:01:03;13.03;;;12.03;;
55465;SDS011;41329;41.594;23.810;2023-01-25T06:03:29;12.37;;;11.27;;
55465;SDS011;41329;41.594;23.810;2023-01-25T06:05:55;14.63;;;13.00;;
55465;SDS011;41329;41.594;23.810;2023-01-25T06:08:22;14.40;;;13.03;;
55465;SDS011;41329;41.594;23.810;2023-01-25T06:10:48;16.77;;;15.30;;
55465;SDS011;41329;41.594;23.810;2023-01-25T06:13:13;18.83;;;17.13;;
55465;SDS011;41329;41.594;23.810;2023-01-25T06:15:39;22.20;;;19.93;;
55465;SDS011;41329;41.594;23.810;2023-01-25T06:18:04;19.80;;;17.80;;
55465;SDS011;41329;41.594;23.810;2023-01-25T06:20:30;12.93;;;11.67;;
55465;SDS011;41329;41.594;23.810;2023-01-25T06:22:55;13.60;;;12.37;;
55465;SDS011;41329;41.594;23.810;2023-01-25T06:25:20;15.83;;;14.03;;
55465;SDS011;41329;41.594;23.810;2023-01-25T06:27:46;15.97;;;14.30;;
55465;SDS011;41329;41.594;23.810;2023-01-25T06:30:12;22.63;;;17.50;;
55465;SDS011;41329;41.594;23.810;2023-01-25T06:32:37;27.50;;;19.03;;
55465;SDS011;41329;41.594;23.810;2023-01-25T06:35:03;41.80;;;23.23;;
55465;SDS011;41329;41.594;23.810;2023-01-25T06:37:29;37.47;;;22.47;;
55465;SDS011;41329;41.594;23.810;2023-01-25T06:39:54;29.37;;;19.33;;
55465;SDS011;41329;41.594;23.810;2023-01-25T06:42:19;30.27;;;19.63;;
55465;SDS011;41329;41.594;23.810;2023-01-25T06:44:48;26.17;;;20.23;;
55465;SDS011;41329;41.594;23.810;2023-01-25T06:47:13;26.23;;;19.67;;
55465;SDS011;41329;41.594;23.810;2023-01-25T06:49:39;28.73;;;20.40;;
55465;SDS011;41329;41.594;23.810;2023-01-25T06:52:04;27.43;;;20.17;;
55465;SDS011;41329;41.594;23.810;2023-01-25T06:54:30;30.17;;;22.50;;
55465;SDS011;41329;41.594;23.810;2023-01-25T06:56:55;29.00;;;22.50;;
55465;SDS011;41329;41.594;23.810;2023-01-25T06:59:20;39.77;;;26.57;;
55465;SDS011;41329;41.594;23.810;2023-01-25T07:01:46;33.80;;;25.40;;
55465;SDS011;41329;41.594;23.810;2023-01-25T07:04:11;46.17;;;28.90;;
55465;SDS011;41329;41.594;23.810;2023-01-25T07:06:37;38.57;;;25.67;;
55465;SDS011;41329;41.594;23.810;2023-01-25T07:09:04;47.37;;;30.80;;
55465;SDS011;41329;41.594;23.810;2023-01-25T07:11:34;34.03;;;25.00;;
55465;SDS011;41329;41.594;23.810;2023-01-25T07:14:00;26.40;;;21.50;;
55465;SDS011;41329;41.594;23.810;2023-01-25T07:16:26;38.33;;;21.27;;
55465;SDS011;41329;41.594;23.810;2023-01-25T07:18:51;32.70;;;20.07;;
55465;SDS011;41329;41.594;23.810;2023-01-25T07:21:18;35.50;;;26.83;;
55465;SDS011;41329;41.594;23.810;2023-01-25T07:23:46;31.40;;;23.60;;
55465;SDS011;41329;41.594;23.810;2023-01-25T07:26:22;35.83;;;26.07;;
55465;SDS011;41329;41.594;23.810;2023-01-25T07:28:49;15.80;;;14.03;;
55465;SDS011;41329;41.594;23.810;2023-01-25T07:31:16;31.00;;;20.67;;
55465;SDS011;41329;41.594;23.810;2023-01-25T07:33:43;38.03;;;25.80;;
55465;SDS011;41329;41.594;23.810;2023-01-25T07:36:11;17.00;;;15.20;;
55465;SDS011;41329;41.594;23.810;2023-01-25T07:38:36;19.57;;;15.80;;
55465;SDS011;41329;41.594;23.810;2023-01-25T07:41:02;26.93;;;20.43;;
55465;SDS011;41329;41.594;23.810;2023-01-25T07:43:28;15.47;;;14.00;;
55465;SDS011;41329;41.594;23.810;2023-01-25T07:45:58;13.40;;;12.37;;
55465;SDS011;41329;41.594;23.810;2023-01-25T07:48:25;16.27;;;12.27;;
55465;SDS011;41329;41.594;23.810;2023-01-25T07:50:51;11.10;;;10.20;;
55465;SDS011;41329;41.594;23.810;2023-01-25T07:53:35;12.13;;;11.10;;
55465;SDS011;41329;41.594;23.810;2023-01-25T07:56:05;12.43;;;11.43;;
55465;SDS011;41329;41.594;23.810;2023-01-25T07:58:31;12.03;;;11.03;;
55465;SDS011;41329;41.594;23.810;2023-01-25T08:00:57;15.03;;;13.60;;
55465;SDS011;41329;41.594;23.810;2023-01-25T08:03:22;13.03;;;12.13;;
55465;SDS011;41329;41.594;23.810;2023-01-25T08:05:47;16.77;;;15.03;;
55465;SDS011;41329;41.594;23.810;2023-01-25T08:08:13;14.60;;;13.27;;
55465;SDS011;41329;41.594;23.810;2023-01-25T08:10:39;13.20;;;12.10;;
55465;SDS011;41329;41.594;23.810;2023-01-25T08:13:04;19.27;;;17.57;;
55465;SDS011;41329;41.594;23.810;2023-01-25T08:15:31;17.33;;;15.70;;
55465;SDS011;41329;41.594;23.810;2023-01-25T08:17:59;37.33;;;25.90;;
55465;SDS011;41329;41.594;23.810;2023-01-25T08:20:28;14.53;;;13.33;;
55465;SDS011;41329;41.594;23.810;2023-01-25T08:22:53;16.70;;;15.10;;
55465;SDS011;41329;41.594;23.810;2023-01-25T08:25:19;19.40;;;17.17;;
55465;SDS011;41329;41.594;23.810;2023-01-25T08:27:44;26.53;;;20.47;;
55465;SDS011;41329;41.594;23.810;2023-01-25T08:30:10;22.50;;;18.67;;
55465;SDS011;41329;41.594;23.810;2023-01-25T08:32:36;21.27;;;17.07;;
55465;SDS011;41329;41.594;23.810;2023-01-25T08:35:02;17.77;;;15.93;;
55465;SDS011;41329;41.594;23.810;2023-01-25T08:37:28;28.87;;;22.90;;
55465;SDS011;41329;41.594;23.810;2023-01-25T08:39:54;11.40;;;10.53;;
55465;SDS011;41329;41.594;23.810;2023-01-25T08:42:24;12.40;;;11.40;;
55465;SDS011;41329;41.594;23.810;2023-01-25T08:44:50;12.90;;;12.00;;
55465;SDS011;41329;41.594;23.810;2023-01-25T08:47:15;17.17;;;14.47;;
55465;SDS011;41329;41.594;23.810;2023-01-25T08:49:41;14.67;;;13.40;;
55465;SDS011;41329;41.594;23.810;2023-01-25T08:52:06;11.87;;;10.53;;
55465;SDS011;41329;41.594;23.810;2023-01-25T08:54:31;11.27;;;10.47;;
55465;SDS011;41329;41.594;23.810;2023-01-25T08:56:57;14.47;;;13.20;;
55465;SDS011;41329;41.594;23.810;2023-01-25T08:59:22;13.90;;;12.70;;
55465;SDS011;41329;41.594;23.810;2023-01-25T09:01:48;16.27;;;14.90;;
55465;SDS011;41329;41.594;23.810;2023-01-25T09:04:13;13.83;;;12.80;;
55465;SDS011;41329;41.594;23.810;2023-01-25T09:06:39;13.77;;;12.67;;
55465;SDS011;41329;41.594;23.810;2023-01-25T09:09:04;13.87;;;12.57;;
55465;SDS011;41329;41.594;23.810;2023-01-25T09:11:33;14.07;;;12.97;;
55465;SDS011;41329;41.594;23.810;2023-01-25T09:14:01;16.17;;;14.70;;
55465;SDS011;41329;41.594;23.810;2023-01-25T09:16:26;12.03;;;10.93;;
55465;SDS011;41329;41.594;23.810;2023-01-25T09:18:53;13.83;;;12.03;;
55465;SDS011;41329;41.594;23.810;2023-01-25T09:21:19;14.10;;;12.77;;
55465;SDS011;41329;41.594;23.810;2023-01-25T09:23:48;11.10;;;10.30;;
55465;SDS011;41329;41.594;23.810;2023-01-25T09:26:15;12.10;;;11.02;;
55465;SDS011;41329;41.594;23.810;2023-01-25T09:28:41;13.27;;;12.17;;
55465;SDS011;41329;41.594;23.810;2023-01-25T09:31:08;11.10;;;10.30;;
55465;SDS011;41329;41.594;23.810;2023-01-25T09:33:38;12.00;;;11.05;;
55465;SDS011;41329;41.594;23.810;2023-01-25T09:36:04;13.40;;;12.30;;
55465;SDS011;41329;41.594;23.810;2023-01-25T09:38:31;14.10;;;12.90;;
55465;SDS011;41329;41.594;23.810;2023-01-25T09:46:00;12.67;;;11.60;;
55465;SDS011;41329;41.594;23.810;2023-01-25T09:48:44;13.63;;;12.67;;
55465;SDS011;41329;41.594;23.810;2023-01-25T09:51:26;11.40;;;10.43;;
55465;SDS011;41329;41.594;23.810;2023-01-25T09:54:16;14.80;;;13.60;;
55465;SDS011;41329;41.594;23.810;2023-01-25T09:56:43;12.77;;;11.60;;
55465;SDS011;41329;41.594;23.810;2023-01-25T09:59:13;13.17;;;12.27;;
55465;SDS011;41329;41.594;23.810;2023-01-25T10:02:04;14.05;;;12.95;;
55465;SDS011;41329;41.594;23.810;2023-01-25T10:04:56;15.13;;;12.73;;
55465;SDS011;41329;41.594;23.810;2023-01-25T10:07:30;28.30;;;22.33;;
55465;SDS011;41329;41.594;23.810;2023-01-25T10:10:23;13.40;;;12.23;;
55465;SDS011;41329;41.594;23.810;2023-01-25T10:13:14;13.87;;;12.67;;
55465;SDS011;41329;41.594;23.810;2023-01-25T10:15:43;13.13;;;11.80;;
55465;SDS011;41329;41.594;23.810;2023-01-25T10:21:16;11.68;;;10.77;;
55465;SDS011;41329;41.594;23.810;2023-01-25T10:26:32;12.40;;;11.40;;
55465;SDS011;41329;41.594;23.810;2023-01-25T10:31:48;13.17;;;12.07;;
55465;SDS011;41329;41.594;23.810;2023-01-25T10:34:19;12.70;;;11.73;;
55465;SDS011;41329;41.594;23.810;2023-01-25T10:36:54;12.67;;;11.47;;
55465;SDS011;41329;41.594;23.810;2023-01-25T10:39:42;10.93;;;10.13;;
55465;SDS011;41329;41.594;23.810;2023-01-25T10:42:18;14.83;;;13.60;;
55465;SDS011;41329;41.594;23.810;2023-01-25T10:44:46;11.83;;;10.40;;
55465;SDS011;41329;41.594;23.810;2023-01-25T10:47:14;13.70;;;12.70;;
55465;SDS011;41329;41.594;23.810;2023-01-25T10:52:19;13.13;;;12.23;;
55465;SDS011;41329;41.594;23.810;2023-01-25T10:54:47;13.17;;;12.03;;
55465;SDS011;41329;41.594;23.810;2023-01-25T10:57:17;25.20;;;22.27;;
55465;SDS011;41329;41.594;23.810;2023-01-25T10:59:48;20.13;;;17.97;;
55465;SDS011;41329;41.594;23.810;2023-01-25T11:02:24;16.47;;;15.00;;
55465;SDS011;41329;41.594;23.810;2023-01-25T11:07:43;35.60;;;28.23;;
55465;SDS011;41329;41.594;23.810;2023-01-25T11:10:30;21.73;;;19.50;;
55465;SDS011;41329;41.594;23.810;2023-01-25T11:15:38;16.73;;;15.23;;
55465;SDS011;41329;41.594;23.810;2023-01-25T11:18:05;15.53;;;14.40;;
55465;SDS011;41329;41.594;23.810;2023-01-25T11:20:36;12.70;;;11.80;;
55465;SDS011;41329;41.594;23.810;2023-01-25T11:23:01;18.07;;;15.93;;
55465;SDS011;41329;41.594;23.810;2023-01-25T11:25:31;15.47;;;14.27;;
55465;SDS011;41329;41.594;23.810;2023-01-25T11:28:17;17.88;;;16.23;;
55465;SDS011;41329;41.594;23.810;2023-01-25T11:30:47;18.33;;;16.63;;
55465;SDS011;41329;41.594;23.810;2023-01-25T11:33:15;21.73;;;17.93;;
55465;SDS011;41329;41.594;23.810;2023-01-25T11:41:26;14.67;;;13.57;;
55465;SDS011;41329;41.594;23.810;2023-01-25T11:46:44;15.10;;;13.80;;
55465;SDS011;41329;41.594;23.810;2023-01-25T11:55:12;39.70;;;27.27;;
55465;SDS011;41329;41.594;23.810;2023-01-25T12:00:57;10.07;;;9.37;;
55465;SDS011;41329;41.594;23.810;2023-01-25T12:06:21;11.47;;;10.40;;
55465;SDS011;41329;41.594;23.810;2023-01-25T12:09:01;11.50;;;10.63;;
55465;SDS011;41329;41.594;23.810;2023-01-25T12:19:15;10.00;;;9.13;;
55465;SDS011;41329;41.594;23.810;2023-01-25T12:32:40;11.27;;;10.37;;
55465;SDS011;41329;41.594;23.810;2023-01-25T12:37:51;13.90;;;12.83;;
55465;SDS011;41329;41.594;23.810;2023-01-25T12:43:32;10.77;;;9.77;;
55465;SDS011;41329;41.594;23.810;2023-01-25T12:46:04;7.47;;;6.97;;
55465;SDS011;41329;41.594;23.810;2023-01-25T12:48:46;10.17;;;9.47;;
55465;SDS011;41329;41.594;23.810;2023-01-25T12:51:14;8.00;;;7.43;;
55465;SDS011;41329;41.594;23.810;2023-01-25T12:53:43;14.30;;;13.20;;
55465;SDS011;41329;41.594;23.810;2023-01-25T12:56:19;10.77;;;10.00;;
55465;SDS011;41329;41.594;23.810;2023-01-25T12:59:06;16.63;;;15.33;;
55465;SDS011;41329;41.594;23.810;2023-01-25T13:01:50;27.27;;;17.00;;
55465;SDS011;41329;41.594;23.810;2023-01-25T13:10:14;13.30;;;12.00;;
55465;SDS011;41329;41.594;23.810;2023-01-25T13:12:54;10.68;;;9.90;;
55465;SDS011;41329;41.594;23.810;2023-01-25T13:15:33;12.03;;;11.13;;
55465;SDS011;41329;41.594;23.810;2023-01-25T13:21:03;12.40;;;11.50;;
55465;SDS011;41329;41.594;23.810;2023-01-25T13:23:33;10.23;;;9.38;;
55465;SDS011;41329;41.594;23.810;2023-01-25T13:28:56;11.47;;;10.47;;
55465;SDS011;41329;41.594;23.810;2023-01-25T13:34:08;10.80;;;9.90;;
55465;SDS011;41329;41.594;23.810;2023-01-25T13:41:58;14.73;;;11.20;;
55465;SDS011;41329;41.594;23.810;2023-01-25T13:44:33;12.70;;;11.40;;
55465;SDS011;41329;41.594;23.810;2023-01-25T13:47:01;25.23;;;17.53;;
55465;SDS011;41329;41.594;23.810;2023-01-25T13:49:32;24.10;;;17.52;;
55465;SDS011;41329;41.594;23.810;2023-01-25T13:52:03;22.17;;;16.83;;
55465;SDS011;41329;41.594;23.810;2023-01-25T13:54:29;19.70;;;14.77;;
55465;SDS011;41329;41.594;23.810;2023-01-25T13:57:04;32.67;;;21.40;;
55465;SDS011;41329;41.594;23.810;2023-01-25T13:59:30;39.00;;;24.87;;
55465;SDS011;41329;41.594;23.810;2023-01-25T14:01:56;24.03;;;20.07;;
55465;SDS011;41329;41.594;23.810;2023-01-25T14:04:23;26.50;;;21.03;;
55465;SDS011;41329;41.594;23.810;2023-01-25T14:06:53;28.50;;;20.87;;
55465;SDS011;41329;41.594;23.810;2023-01-25T14:09:21;29.03;;;22.53;;
55465;SDS011;41329;41.594;23.810;2023-01-25T14:11:53;29.50;;;21.77;;
55465;SDS011;41329;41.594;23.810;2023-01-25T14:14:31;18.27;;;16.77;;
55465;SDS011;41329;41.594;23.810;2023-01-25T14:16:59;19.67;;;17.63;;
55465;SDS011;41329;41.594;23.810;2023-01-25T14:19:55;21.97;;;18.63;;
55465;SDS011;41329;41.594;23.810;2023-01-25T14:22:21;31.93;;;21.27;;
55465;SDS011;41329;41.594;23.810;2023-01-25T14:27:39;34.90;;;23.53;;
55465;SDS011;41329;41.594;23.810;2023-01-25T14:30:27;18.00;;;16.23;;
55465;SDS011;41329;41.594;23.810;2023-01-25T14:32:58;16.33;;;14.80;;
55465;SDS011;41329;41.594;23.810;2023-01-25T14:38:00;16.43;;;14.90;;
55465;SDS011;41329;41.594;23.810;2023-01-25T14:40:27;14.60;;;13.40;;
55465;SDS011;41329;41.594;23.810;2023-01-25T14:42:53;14.83;;;13.73;;
55465;SDS011;41329;41.594;23.810;2023-01-25T14:45:22;14.23;;;13.13;;
55465;SDS011;41329;41.594;23.810;2023-01-25T14:47:50;17.60;;;15.53;;
55465;SDS011;41329;41.594;23.810;2023-01-25T14:52:56;23.30;;;19.17;;
55465;SDS011;41329;41.594;23.810;2023-01-25T14:55:24;14.97;;;13.63;;
55465;SDS011;41329;41.594;23.810;2023-01-25T14:57:50;16.53;;;14.83;;
55465;SDS011;41329;41.594;23.810;2023-01-25T15:00:21;17.13;;;14.87;;
55465;SDS011;41329;41.594;23.810;2023-01-25T15:02:48;17.63;;;15.83;;
55465;SDS011;41329;41.594;23.810;2023-01-25T15:05:21;20.73;;;17.10;;
55465;SDS011;41329;41.594;23.810;2023-01-25T15:07:50;16.97;;;15.40;;
55465;SDS011;41329;41.594;23.810;2023-01-25T15:10:48;16.10;;;14.67;;
55465;SDS011;41329;41.594;23.810;2023-01-25T15:15:53;16.13;;;14.43;;
55465;SDS011;41329;41.594;23.810;2023-01-25T15:18:42;21.00;;;17.37;;
55465;SDS011;41329;41.594;23.810;2023-01-25T15:21:27;27.87;;;22.43;;
55465;SDS011;41329;41.594;23.810;2023-01-25T15:23:55;21.60;;;17.90;;
55465;SDS011;41329;41.594;23.810;2023-01-25T15:29:36;20.30;;;18.43;;
55465;SDS011;41329;41.594;23.810;2023-01-25T15:31:47;26.47;;;20.03;;
55465;SDS011;41329;41.594;23.810;2023-01-25T15:34:22;23.10;;;18.60;;
55465;SDS011;41329;41.594;23.810;2023-01-25T15:36:49;26.07;;;21.20;;
55465;SDS011;41329;41.594;23.810;2023-01-25T15:39:15;26.47;;;19.77;;
55465;SDS011;41329;41.594;23.810;2023-01-25T15:41:42;120.90;;;55.70;;
55465;SDS011;41329;41.594;23.810;2023-01-25T15:44:09;46.60;;;28.63;;
55465;SDS011;41329;41.594;23.810;2023-01-25T15:46:36;38.37;;;25.20;;
55465;SDS011;41329;41.594;23.810;2023-01-25T15:49:06;31.63;;;22.73;;
55465;SDS011;41329;41.594;23.810;2023-01-25T15:51:35;46.73;;;27.90;;
55465;SDS011;41329;41.594;23.810;2023-01-25T15:54:01;42.93;;;24.87;;
55465;SDS011;41329;41.594;23.810;2023-01-25T15:56:31;43.60;;;23.90;;
55465;SDS011;41329;41.594;23.810;2023-01-25T15:59:04;38.88;;;22.92;;
55465;SDS011;41329;41.594;23.810;2023-01-25T16:01:30;29.58;;;18.80;;
55465;SDS011;41329;41.594;23.810;2023-01-25T16:03:56;23.77;;;18.97;;
55465;SDS011;41329;41.594;23.810;2023-01-25T16:06:29;26.27;;;20.37;;
55465;SDS011;41329;41.594;23.810;2023-01-25T16:08:59;77.23;;;43.93;;
55465;SDS011;41329;41.594;23.810;2023-01-25T16:11:36;77.03;;;48.37;;
55465;SDS011;41329;41.594;23.810;2023-01-25T16:14:01;36.87;;;29.43;;
55465;SDS011;41329;41.594;23.810;2023-01-25T16:16:26;17.33;;;15.57;;
55465;SDS011;41329;41.594;23.810;2023-01-25T16:18:52;14.93;;;13.73;;
55465;SDS011;41329;41.594;23.810;2023-01-25T16:21:17;18.90;;;17.43;;